Time,TemperatureF,DewpointF,PressureIn,WindDirection,WindDirectionDegrees,WindSpeedMPH,WindSpeedGustMPH,Humidity,HourlyPrecipIn,Conditions,Clouds,dailyrainin,SolarRadiationWatts/m^2,SoftwareType,DateUTC
2013-06-24 00:27:00,55.0,37.0,-100.00,SE,129,1.0,7.0,51,0.00,,,0.00,0.000000,,2013-06-24 07:27:00,
2013-06-24 00:34:00,55.0,37.0,-100.00,SE,129,1.0,7.0,51,0.00,,,0.00,0.000000,,2013-06-24 07:34:00,
2013-06-24 00:46:00,55.0,37.0,-100.00,SE,129,1.0,7.0,51,0.00,,,0.00,0.000000,,2013-06-24 07:46:00,
2013-06-24 00:53:00,55.0,37.0,-100.00,SE,129,1.0,7.0,51,0.00,,,0.00,0.000000,,2013-06-24 07:53:00,
2013-06-24 01:34:00,55.0,36.0,-100.00,ESE,117,0.0,4.0,49,0.00,,,0.00,0.000000,,2013-06-24 08:34:00,
2013-06-24 01:45:00,55.0,36.0,-100.00,ESE,117,0.0,4.0,49,0.00,,,0.00,0.000000,,2013-06-24 08:45:00,
2013-06-24 01:52:00,55.0,36.0,-100.00,ESE,117,0.0,4.0,49,0.00,,,0.00,0.000000,,2013-06-24 08:52:00,
2013-06-24 02:25:00,52.0,35.0,-100.00,ESE,105,0.0,3.0,52,0.00,,,-99.99,0.000000,,2013-06-24 09:25:00,
2013-06-24 02:35:00,52.0,35.0,-100.00,ESE,105,0.0,3.0,52,0.00,,,-99.99,0.000000,,2013-06-24 09:35:00,
2013-06-24 02:45:00,52.0,35.0,-100.00,ESE,105,0.0,3.0,52,0.00,,,-99.99,0.000000,,2013-06-24 09:45:00,
2013-06-24 02:54:00,52.0,35.0,-100.00,ESE,105,0.0,3.0,52,0.00,,,-99.99,0.000000,,2013-06-24 09:54:00,
2013-06-24 03:23:00,54.0,37.0,-100.00,ESE,116,0.0,4.0,52,0.00,,,0.00,0.000000,,2013-06-24 10:23:00,
2013-06-24 03:36:00,54.0,37.0,-100.00,ESE,116,0.0,4.0,52,0.00,,,0.00,0.000000,,2013-06-24 10:36:00,
2013-06-24 03:46:00,54.0,37.0,-100.00,ESE,116,0.0,4.0,52,0.00,,,0.00,0.000000,,2013-06-24 10:46:00,
2013-06-24 03:54:00,54.0,37.0,-100.00,ESE,116,0.0,4.0,52,0.00,,,0.00,0.000000,,2013-06-24 10:54:00,
2013-06-24 04:26:00,52.0,36.0,-100.00,SE,141,1.0,5.0,55,0.00,,,0.00,0.000000,,2013-06-24 11:26:00,
2013-06-24 04:34:00,52.0,36.0,-100.00,SE,141,1.0,5.0,55,0.00,,,0.00,0.000000,,2013-06-24 11:34:00,
2013-06-24 04:43:00,52.0,36.0,-100.00,SE,141,1.0,5.0,55,0.00,,,0.00,0.000000,,2013-06-24 11:43:00,
2013-06-24 04:53:00,52.0,36.0,-100.00,SE,141,1.0,5.0,55,0.00,,,0.00,0.000000,,2013-06-24 11:53:00,
2013-06-24 05:23:00,52.0,36.0,-100.00,ESE,110,0.0,5.0,55,0.00,,,0.00,0.000000,,2013-06-24 12:23:00,
2013-06-24 05:36:00,52.0,36.0,-100.00,ESE,110,0.0,5.0,55,0.00,,,0.00,0.000000,,2013-06-24 12:36:00,
2013-06-24 05:45:00,52.0,36.0,-100.00,ESE,110,0.0,5.0,55,0.00,,,0.00,0.000000,,2013-06-24 12:45:00,
2013-06-24 05:53:00,52.0,36.0,-100.00,ESE,110,0.0,5.0,55,0.00,,,0.00,0.000000,,2013-06-24 12:53:00,
2013-06-24 06:42:00,52.0,37.0,-100.00,ESE,121,0.0,4.0,57,0.00,,,0.00,2.000000,,2013-06-24 13:42:00,
2013-06-24 06:54:00,52.0,37.0,-100.00,ESE,121,0.0,4.0,57,0.00,,,0.00,2.000000,,2013-06-24 13:54:00,
2013-06-24 07:36:00,56.0,39.0,-100.00,East,101,0.0,4.0,53,0.00,,,0.00,56.000000,,2013-06-24 14:36:00,
2013-06-24 07:43:00,56.0,39.0,-100.00,East,101,0.0,4.0,53,0.00,,,0.00,56.000000,,2013-06-24 14:43:00,
2013-06-24 08:34:00,63.0,44.0,-100.00,South,186,0.0,4.0,50,0.00,,,0.00,152.000000,,2013-06-24 15:34:00,
2013-06-24 08:45:00,63.0,44.0,-100.00,South,186,0.0,4.0,50,0.00,,,0.00,152.000000,,2013-06-24 15:45:00,
2013-06-24 09:23:00,61.0,42.0,-100.00,West,266,1.0,9.0,50,0.00,,,0.00,206.000000,,2013-06-24 16:23:00,
2013-06-24 09:34:00,61.0,42.0,-100.00,West,266,1.0,9.0,50,0.00,,,0.00,206.000000,,2013-06-24 16:34:00,
2013-06-24 09:43:00,61.0,42.0,-100.00,West,266,1.0,9.0,50,0.00,,,0.00,206.000000,,2013-06-24 16:43:00,
2013-06-24 09:54:00,61.0,42.0,-100.00,West,266,1.0,9.0,50,0.00,,,0.00,206.000000,,2013-06-24 16:54:00,
2013-06-24 10:34:00,66.0,46.0,-100.00,WSW,255,1.0,5.0,49,0.00,,,0.00,356.000000,,2013-06-24 17:34:00,
2013-06-24 10:44:00,66.0,46.0,-100.00,WSW,255,1.0,5.0,49,0.00,,,0.00,356.000000,,2013-06-24 17:44:00,
2013-06-24 10:55:00,66.0,46.0,-100.00,WSW,255,1.0,5.0,49,0.00,,,0.00,356.000000,,2013-06-24 17:55:00,
2013-06-24 11:34:00,67.0,50.0,-100.00,NW,326,1.0,6.0,54,0.00,,,0.00,331.000000,,2013-06-24 18:34:00,
2013-06-24 11:45:00,67.0,50.0,-100.00,NW,326,1.0,6.0,54,0.00,,,0.00,331.000000,,2013-06-24 18:45:00,
2013-06-24 11:53:00,67.0,50.0,-100.00,NW,326,1.0,6.0,54,0.00,,,0.00,331.000000,,2013-06-24 18:53:00,
2013-06-24 12:24:00,70.0,50.0,-100.00,West,274,4.0,10.0,49,0.00,,,0.00,677.000000,,2013-06-24 19:24:00,
2013-06-24 12:43:00,70.0,50.0,-100.00,West,274,4.0,10.0,49,0.00,,,0.00,677.000000,,2013-06-24 19:43:00,
2013-06-24 12:53:00,70.0,50.0,-100.00,West,274,4.0,10.0,49,0.00,,,0.00,677.000000,,2013-06-24 19:53:00,
2013-06-24 13:43:00,70.0,48.0,-100.00,WNW,284,4.0,11.0,45,0.00,,,0.00,628.000000,,2013-06-24 20:43:00,
2013-06-24 13:53:00,70.0,48.0,-100.00,WNW,284,4.0,11.0,45,0.00,,,0.00,628.000000,,2013-06-24 20:53:00,
2013-06-24 14:36:00,69.0,48.0,-100.00,NW,312,4.0,10.0,47,0.00,,,0.00,531.000000,,2013-06-24 21:36:00,
2013-06-24 14:45:00,69.0,48.0,-100.00,NW,312,4.0,10.0,47,0.00,,,0.00,531.000000,,2013-06-24 21:45:00,
2013-06-24 14:53:00,69.0,48.0,-100.00,NW,312,4.0,10.0,47,0.00,,,0.00,531.000000,,2013-06-24 21:53:00,
2013-06-24 15:46:00,67.0,49.0,-100.00,East,83,3.0,13.0,53,0.00,,,0.00,250.000000,,2013-06-24 22:46:00,
2013-06-24 15:53:00,67.0,49.0,-100.00,East,83,3.0,13.0,53,0.00,,,0.00,250.000000,,2013-06-24 22:53:00,
2013-06-24 16:24:00,73.0,53.0,-100.00,SSE,154,1.0,9.0,49,0.00,,,0.00,418.000000,,2013-06-24 23:24:00,
2013-06-24 16:34:00,73.0,53.0,-100.00,SSE,154,1.0,9.0,49,0.00,,,0.00,418.000000,,2013-06-24 23:34:00,
2013-06-24 16:43:00,73.0,53.0,-100.00,SSE,154,1.0,9.0,49,0.00,,,0.00,418.000000,,2013-06-24 23:43:00,
2013-06-24 16:53:00,73.0,53.0,-100.00,SSE,154,1.0,9.0,49,0.00,,,0.00,418.000000,,2013-06-24 23:53:00,
2013-06-24 17:22:00,72.0,52.0,-100.00,WNW,294,2.0,10.0,49,0.00,,,0.00,295.000000,,2013-06-25 00:22:00,
2013-06-24 17:33:00,72.0,52.0,-100.00,WNW,294,2.0,10.0,49,0.00,,,0.00,295.000000,,2013-06-25 00:33:00,
2013-06-24 17:45:00,72.0,52.0,-100.00,WNW,294,2.0,10.0,49,0.00,,,0.00,295.000000,,2013-06-25 00:45:00,
2013-06-24 17:53:00,72.0,52.0,-100.00,WNW,294,2.0,10.0,49,0.00,,,0.00,295.000000,,2013-06-25 00:53:00,
2013-06-24 18:23:00,74.0,52.0,-100.00,WNW,289,3.0,10.0,46,0.00,,,0.00,404.000000,,2013-06-25 01:23:00,
2013-06-24 18:33:00,74.0,52.0,-100.00,WNW,289,3.0,10.0,46,0.00,,,0.00,404.000000,,2013-06-25 01:33:00,
2013-06-24 18:44:00,74.0,52.0,-100.00,WNW,289,3.0,10.0,46,0.00,,,0.00,404.000000,,2013-06-25 01:44:00,
2013-06-24 18:53:00,74.0,52.0,-100.00,WNW,289,3.0,10.0,46,0.00,,,0.00,404.000000,,2013-06-25 01:53:00,
2013-06-24 19:24:00,67.0,49.0,-100.00,NW,320,2.0,11.0,53,0.00,,,0.00,237.000000,,2013-06-25 02:24:00,
2013-06-24 19:35:00,67.0,49.0,-100.00,NW,320,2.0,11.0,53,0.00,,,0.00,237.000000,,2013-06-25 02:35:00,
2013-06-24 19:43:00,67.0,49.0,-100.00,NW,320,2.0,11.0,53,0.00,,,0.00,237.000000,,2013-06-25 02:43:00,
2013-06-24 19:54:00,67.0,49.0,-100.00,NW,320,2.0,11.0,53,0.00,,,0.00,237.000000,,2013-06-25 02:54:00,
2013-06-24 20:27:00,66.0,51.0,-100.00,NNE,28,1.0,8.0,58,0.00,,,0.00,47.000000,,2013-06-25 03:27:00,
2013-06-24 20:47:00,66.0,51.0,-100.00,NNE,28,1.0,8.0,58,0.00,,,0.00,47.000000,,2013-06-25 03:47:00,
2013-06-24 20:55:00,66.0,51.0,-100.00,NNE,28,1.0,8.0,58,0.00,,,0.00,47.000000,,2013-06-25 03:55:00,
2013-06-24 21:22:00,63.0,50.0,-100.00,North,1,0.0,5.0,62,0.00,,,0.00,2.000000,,2013-06-25 04:22:00,
2013-06-24 21:34:00,63.0,50.0,-100.00,North,1,0.0,5.0,62,0.00,,,0.00,2.000000,,2013-06-25 04:34:00,
2013-06-24 21:42:00,63.0,50.0,-100.00,North,1,0.0,5.0,62,0.00,,,0.00,2.000000,,2013-06-25 04:42:00,
2013-06-24 21:52:00,63.0,50.0,-100.00,North,1,0.0,5.0,62,0.00,,,0.00,2.000000,,2013-06-25 04:52:00,
2013-06-24 22:32:00,59.0,50.0,-100.00,ENE,77,0.0,4.0,72,0.00,,,0.00,0.000000,,2013-06-25 05:32:00,
2013-06-24 22:44:00,59.0,50.0,-100.00,ENE,77,0.0,4.0,72,0.00,,,0.00,0.000000,,2013-06-25 05:44:00,
2013-06-24 22:52:00,59.0,50.0,-100.00,ENE,77,0.0,4.0,72,0.00,,,0.00,0.000000,,2013-06-25 05:52:00,
2013-06-24 23:21:00,62.0,51.0,-100.00,South,188,0.0,3.0,67,0.00,,,0.00,0.000000,,2013-06-25 06:21:00,
2013-06-24 23:33:00,62.0,51.0,-100.00,South,188,0.0,3.0,67,0.00,,,0.00,0.000000,,2013-06-25 06:33:00,
2013-06-24 23:43:00,62.0,51.0,-100.00,South,188,0.0,3.0,67,0.00,,,0.00,0.000000,,2013-06-25 06:43:00,
2013-06-24 23:52:00,62.0,51.0,-100.00,South,188,0.0,3.0,67,0.00,,,0.00,0.000000,,2013-06-25 06:52:00,